createdAt,value
2022-08-17T00:01:52.136Z,21.69
2022-08-17T00:04:19.813Z,21.63
2022-08-17T00:06:49.124Z,21.61
2022-08-17T00:09:18.363Z,21.61
2022-08-17T00:12:03.932Z,21.56
2022-08-17T00:14:36.106Z,21.58
2022-08-17T00:17:04.644Z,21.58
2022-08-17T00:19:32.733Z,21.48
2022-08-17T00:22:33.777Z,21.51
2022-08-17T00:24:50.237Z,21.52
2022-08-17T00:27:17.428Z,21.54
2022-08-17T00:29:45.856Z,21.53
2022-08-17T00:33:13.920Z,21.59
2022-08-17T00:35:06.092Z,21.63
2022-08-17T00:37:32.728Z,21.61
2022-08-17T00:39:59.400Z,21.62
2022-08-17T00:42:31.153Z,21.66
2022-08-17T00:44:58.490Z,21.69
2022-08-17T00:47:25.361Z,21.72
2022-08-17T00:49:52.046Z,21.70
2022-08-17T00:52:23.116Z,21.64
2022-08-17T00:54:53.930Z,21.63
2022-08-17T00:57:25.250Z,21.59
2022-08-17T01:00:03.038Z,21.54
2022-08-17T01:02:43.142Z,21.48
2022-08-17T01:05:18.411Z,21.41
2022-08-17T01:07:47.738Z,21.33
2022-08-17T01:10:59.967Z,21.27
2022-08-17T01:13:03.899Z,21.23
2022-08-17T01:15:31.850Z,21.16
2022-08-17T01:17:58.403Z,21.14
2022-08-17T01:20:25.134Z,21.07
2022-08-17T01:22:52.409Z,21.08
2022-08-17T01:25:21.264Z,20.79
2022-08-17T01:27:49.244Z,20.60
2022-08-17T01:30:58.955Z,20.81
2022-08-17T01:33:04.326Z,20.86
2022-08-17T01:35:30.932Z,20.88
2022-08-17T01:37:57.461Z,20.91
2022-08-17T01:40:39.025Z,20.88
2022-08-17T01:43:21.606Z,20.90
2022-08-17T01:46:02.711Z,20.92
2022-08-17T01:48:33.084Z,20.95
2022-08-17T01:50:59.899Z,20.90
2022-08-17T01:53:34.880Z,20.86
2022-08-17T01:56:07.874Z,20.87
2022-08-17T01:58:36.162Z,20.75
2022-08-17T02:01:04.024Z,20.76
2022-08-17T02:03:31.915Z,20.73
2022-08-17T02:05:58.943Z,20.69
2022-08-17T02:08:39.180Z,20.66
2022-08-17T02:11:16.687Z,20.63
2022-08-17T02:13:45.213Z,20.62
2022-08-17T02:16:13.005Z,20.52
2022-08-17T02:18:40.012Z,20.46
2022-08-17T02:21:07.188Z,20.35
2022-08-17T02:23:38.586Z,20.33
2022-08-17T02:26:05.443Z,20.35
2022-08-17T02:28:32.071Z,20.29
2022-08-17T02:31:04.961Z,20.19
2022-08-17T02:34:09.527Z,20.15
2022-08-17T02:36:36.397Z,20.08
2022-08-17T02:39:06.684Z,20.00
2022-08-17T02:41:33.698Z,19.98
2022-08-17T02:44:01.257Z,19.99
2022-08-17T02:46:28.364Z,19.99
2022-08-17T02:48:55.008Z,20.07
2022-08-17T02:51:21.864Z,19.97
2022-08-17T02:53:48.450Z,19.90
2022-08-17T02:56:15.015Z,19.95
2022-08-17T02:58:41.539Z,19.90
2022-08-17T03:01:10.104Z,19.89
2022-08-17T03:03:38.358Z,19.82
2022-08-17T03:06:06.115Z,19.81
2022-08-17T03:08:32.640Z,19.83
2022-08-17T03:10:59.582Z,19.87
2022-08-17T03:13:27.495Z,19.80
2022-08-17T03:15:54.071Z,19.74
2022-08-17T03:18:25.671Z,19.70
2022-08-17T03:20:59.547Z,19.63
2022-08-17T03:23:27.527Z,19.63
2022-08-17T03:25:56.436Z,19.60
2022-08-17T03:28:24.459Z,19.58
2022-08-17T03:30:51.669Z,19.68
2022-08-17T03:33:19.457Z,19.73
2022-08-17T03:35:46.035Z,19.69
2022-08-17T03:38:15.145Z,19.62
2022-08-17T03:40:56.753Z,19.66
2022-08-17T03:43:30.074Z,19.73
2022-08-17T03:46:28.202Z,19.77
2022-08-17T03:49:23.901Z,19.73
2022-08-17T03:52:09.333Z,19.73
2022-08-17T03:54:54.124Z,19.87
2022-08-17T03:57:20.688Z,19.85
2022-08-17T03:59:47.686Z,19.85
2022-08-17T04:02:21.652Z,19.83
2022-08-17T04:04:50.884Z,19.81
2022-08-17T04:07:19.359Z,19.79
2022-08-17T04:09:45.905Z,19.85
2022-08-17T04:12:16.152Z,19.88
2022-08-17T04:14:53.540Z,19.86
2022-08-17T04:17:27.125Z,19.90
2022-08-17T04:19:55.447Z,20.01
2022-08-17T04:22:33.005Z,20.00
2022-08-17T04:25:32.218Z,20.08
2022-08-17T04:28:00.464Z,20.05
2022-08-17T04:30:29.896Z,20.08
2022-08-17T04:33:05.011Z,20.12
2022-08-17T04:35:36.928Z,20.14
2022-08-17T04:38:04.151Z,20.15
2022-08-17T04:40:49.311Z,20.13
2022-08-17T04:43:18.702Z,20.05
2022-08-17T04:45:54.984Z,20.10
2022-08-17T04:48:23.624Z,20.11
2022-08-17T04:51:03.664Z,20.18
2022-08-17T04:53:30.178Z,20.08
2022-08-17T04:55:58.968Z,20.10
2022-08-17T04:58:25.491Z,20.20
2022-08-17T05:00:52.083Z,20.20
2022-08-17T05:03:18.951Z,20.22
2022-08-17T05:05:49.715Z,20.23
2022-08-17T05:08:18.983Z,20.30
2022-08-17T05:10:46.876Z,20.26
2022-08-17T05:13:18.341Z,20.31
2022-08-17T05:15:47.768Z,20.32
2022-08-17T05:18:14.985Z,20.34
2022-08-17T05:20:41.769Z,20.39
2022-08-17T05:23:12.807Z,20.35
2022-08-17T05:25:42.085Z,20.41
2022-08-17T05:28:14.933Z,20.39
2022-08-17T05:30:43.968Z,20.43
2022-08-17T05:33:19.970Z,20.45
2022-08-17T05:35:48.709Z,20.48
2022-08-17T05:38:17.109Z,20.51
2022-08-17T05:40:44.179Z,20.51
2022-08-17T05:43:17.994Z,20.63
2022-08-17T05:46:22.009Z,20.62
2022-08-17T05:48:51.622Z,20.63
2022-08-17T05:51:55.877Z,20.69
2022-08-17T05:54:47.125Z,20.79
2022-08-17T05:57:53.404Z,20.74
2022-08-17T06:00:26.248Z,20.70
2022-08-17T06:03:21.830Z,20.79
2022-08-17T06:06:10.231Z,20.80
2022-08-17T06:08:55.040Z,20.86
2022-08-17T06:11:39.197Z,20.85
2022-08-17T06:14:38.477Z,20.94
2022-08-17T06:17:15.544Z,20.93
2022-08-17T06:20:15.682Z,21.06
2022-08-17T06:22:56.563Z,21.38
2022-08-17T06:25:32.329Z,21.63
2022-08-17T06:28:05.830Z,21.85
2022-08-17T06:30:58.438Z,22.12
2022-08-17T06:33:32.725Z,22.07
2022-08-17T06:36:10.706Z,22.22
2022-08-17T06:38:55.653Z,22.31
2022-08-17T06:41:38.130Z,22.37
2022-08-17T06:44:43.551Z,22.00
2022-08-17T06:47:27.958Z,22.19
2022-08-17T06:50:14.552Z,22.25
2022-08-17T06:52:57.093Z,22.44
2022-08-17T06:55:37.867Z,22.50
2022-08-17T06:58:15.916Z,22.72
2022-08-17T07:00:47.262Z,22.80
2022-08-17T07:03:29.365Z,22.92
2022-08-17T07:06:08.691Z,23.17
2022-08-17T07:08:55.841Z,23.42
2022-08-17T07:11:45.268Z,23.23
2022-08-17T07:14:36.557Z,23.42
2022-08-17T07:17:46.636Z,23.58
2022-08-17T07:20:15.160Z,23.54
2022-08-17T07:22:59.338Z,23.57
2022-08-17T07:25:28.569Z,23.50
2022-08-17T07:27:59.820Z,23.55
2022-08-17T07:30:44.591Z,23.83
2022-08-17T07:33:20.351Z,23.59
2022-08-17T07:35:48.459Z,23.49
2022-08-17T07:38:25.941Z,23.43
2022-08-17T07:40:57.679Z,23.40
2022-08-17T07:43:39.502Z,23.35
2022-08-17T07:46:43.205Z,23.29
2022-08-17T07:49:09.810Z,23.32
2022-08-17T07:51:42.508Z,23.13
2022-08-17T07:54:15.153Z,23.03
2022-08-17T07:57:29.498Z,22.96
2022-08-17T08:00:03.044Z,23.10
2022-08-17T08:02:40.237Z,23.05
2022-08-17T08:05:49.268Z,22.92
2022-08-17T08:08:22.486Z,22.80
2022-08-17T08:11:03.095Z,22.67
2022-08-17T08:13:30.837Z,22.69
2022-08-17T08:16:12.806Z,22.58
2022-08-17T08:18:54.109Z,22.49
2022-08-17T08:22:02.938Z,22.49
2022-08-17T08:25:12.788Z,22.51
2022-08-17T08:28:05.636Z,22.57
2022-08-17T08:30:40.702Z,22.57
2022-08-17T08:33:21.441Z,22.58
2022-08-17T08:38:48.374Z,22.55
2022-08-17T08:41:45.809Z,22.47
2022-08-17T08:44:58.974Z,22.47
2022-08-17T08:47:10.998Z,22.48
2022-08-17T08:50:03.538Z,22.64
2022-08-17T08:53:00.321Z,22.82
2022-08-17T08:55:49.136Z,22.88
2022-08-17T08:58:42.337Z,22.72
2022-08-17T09:01:21.183Z,22.69
2022-08-17T09:04:20.031Z,22.73
2022-08-17T09:06:56.530Z,22.72
2022-08-17T09:09:35.735Z,22.53
2022-08-17T09:12:33.941Z,22.48
2022-08-17T09:15:13.821Z,22.51
2022-08-17T09:19:02.575Z,22.50
2022-08-17T09:21:10.197Z,22.54
2022-08-17T09:23:49.449Z,22.48
2022-08-17T09:26:30.442Z,22.51
2022-08-17T09:29:02.218Z,22.47
2022-08-17T09:31:35.582Z,22.41
2022-08-17T09:34:19.177Z,22.26
2022-08-17T09:37:26.419Z,22.23
2022-08-17T09:40:15.810Z,22.23
2022-08-17T09:42:52.455Z,22.19
2022-08-17T09:45:24.812Z,22.08
2022-08-17T09:48:02.077Z,22.14
2022-08-17T09:51:03.984Z,22.14
2022-08-17T09:53:25.607Z,21.93
2022-08-17T09:56:14.311Z,21.96
2022-08-17T09:59:17.221Z,22.07
2022-08-17T10:01:51.618Z,22.20
2022-08-17T10:04:53.704Z,22.38
2022-08-17T10:08:09.292Z,22.84
2022-08-17T10:10:56.307Z,23.11
2022-08-17T10:13:32.962Z,23.61
2022-08-17T10:16:09.784Z,23.86
2022-08-17T10:18:54.931Z,23.31
2022-08-17T10:21:42.004Z,23.51
2022-08-17T10:25:20.879Z,24.08
2022-08-17T10:27:54.471Z,25.09
2022-08-17T10:30:25.877Z,26.19
2022-08-17T10:33:14.522Z,24.13
2022-08-17T10:36:10.598Z,24.07
2022-08-17T10:38:45.971Z,24.34
2022-08-17T10:41:38.222Z,24.59
2022-08-17T10:44:37.031Z,25.66
2022-08-17T10:47:11.802Z,26.44
2022-08-17T10:49:47.554Z,25.04
2022-08-17T10:52:20.258Z,24.99
2022-08-17T10:54:58.212Z,25.21
2022-08-17T10:57:34.111Z,25.44
2022-08-17T11:00:05.129Z,25.29
2022-08-17T11:02:53.266Z,25.42
2022-08-17T11:05:30.234Z,24.52
2022-08-17T11:08:08.019Z,24.62
2022-08-17T11:10:34.587Z,24.86
2022-08-17T11:13:31.311Z,24.64
2022-08-17T11:16:16.522Z,24.09
2022-08-17T11:19:10.982Z,24.39
2022-08-17T11:21:55.465Z,24.14
2022-08-17T11:24:30.601Z,24.05
2022-08-17T11:27:12.447Z,23.98
2022-08-17T11:30:03.534Z,24.38
2022-08-17T11:32:33.167Z,24.85
2022-08-17T11:35:21.475Z,25.53
2022-08-17T11:38:31.568Z,26.54
2022-08-17T11:41:27.431Z,27.13
2022-08-17T11:44:28.132Z,25.76
2022-08-17T11:47:32.153Z,25.70
2022-08-17T11:50:17.328Z,26.22
2022-08-17T11:52:49.719Z,26.51
2022-08-17T11:55:38.473Z,25.81
2022-08-17T11:58:29.479Z,25.45
2022-08-17T12:00:59.602Z,25.33
2022-08-17T12:03:32.225Z,25.26
2022-08-17T12:06:24.910Z,25.42
2022-08-17T12:09:06.852Z,25.44
2022-08-17T12:12:10.987Z,25.69
2022-08-17T12:15:05.787Z,25.60
2022-08-17T12:17:40.658Z,25.20
2022-08-17T12:20:19.003Z,25.47
2022-08-17T12:23:07.418Z,25.45
2022-08-17T12:25:43.201Z,25.50
2022-08-17T12:28:29.940Z,25.68
2022-08-17T12:31:01.796Z,25.97
2022-08-17T12:33:29.080Z,25.88
2022-08-17T12:36:05.555Z,26.01
2022-08-17T12:38:36.919Z,25.50
2022-08-17T12:41:24.821Z,25.50
2022-08-17T12:44:02.305Z,25.18
2022-08-17T12:46:44.752Z,25.13
2022-08-17T12:49:26.515Z,25.60
2022-08-17T12:52:12.522Z,25.53
2022-08-17T12:54:56.822Z,25.33
2022-08-17T12:57:27.406Z,25.63
2022-08-17T13:00:02.903Z,25.86
2022-08-17T13:02:41.374Z,25.71
2022-08-17T13:05:17.859Z,25.74
2022-08-17T13:07:46.621Z,26.10
2022-08-17T13:10:18.392Z,25.99
2022-08-17T13:12:45.175Z,25.95
2022-08-17T13:15:38.147Z,25.77
2022-08-17T13:18:45.623Z,25.90
2022-08-17T13:21:23.901Z,25.64
2022-08-17T13:24:12.008Z,25.74
2022-08-17T13:26:42.015Z,25.86
2022-08-17T13:29:16.669Z,25.80
2022-08-17T13:31:52.880Z,25.90
2022-08-17T13:34:26.885Z,26.39
2022-08-17T13:37:35.078Z,26.33
2022-08-17T13:40:10.788Z,25.55
2022-08-17T13:42:52.236Z,25.52
2022-08-17T13:45:36.203Z,25.53
2022-08-17T13:48:29.043Z,25.56
2022-08-17T13:50:55.641Z,25.41
2022-08-17T13:53:24.896Z,25.46
2022-08-17T13:56:33.430Z,25.71
2022-08-17T13:59:04.995Z,25.73
2022-08-17T14:01:36.498Z,25.57
2022-08-17T14:04:09.951Z,25.66
2022-08-17T14:06:53.013Z,25.29
2022-08-17T14:09:26.445Z,25.12
2022-08-17T14:11:54.885Z,25.25
2022-08-17T14:14:23.260Z,25.17
2022-08-17T14:16:53.505Z,25.26
2022-08-17T14:19:21.892Z,25.32
2022-08-17T14:21:49.125Z,25.16
2022-08-17T14:24:31.629Z,25.28
2022-08-17T14:27:00.441Z,25.18
2022-08-17T14:29:28.698Z,25.42
2022-08-17T14:31:56.595Z,25.40
2022-08-17T14:34:25.015Z,25.54
2022-08-17T14:36:52.446Z,25.38
2022-08-17T14:39:19.705Z,25.65
2022-08-17T14:41:46.687Z,25.20
2022-08-17T14:44:13.422Z,25.07
2022-08-17T14:46:41.765Z,25.13
2022-08-17T14:49:11.675Z,25.43
2022-08-17T14:51:44.042Z,25.23
2022-08-17T14:54:32.661Z,25.16
2022-08-17T14:57:24.785Z,25.14
2022-08-17T14:59:46.974Z,25.16
2022-08-17T15:02:13.541Z,25.57
2022-08-17T15:04:45.386Z,25.50
2022-08-17T15:07:12.409Z,25.53
2022-08-17T15:09:39.118Z,25.62
2022-08-17T15:12:06.847Z,25.87
2022-08-17T15:14:35.370Z,25.56
2022-08-17T15:17:03.710Z,25.47
2022-08-17T15:19:30.571Z,25.54
2022-08-17T15:21:57.290Z,25.27
2022-08-17T15:24:23.840Z,25.43
2022-08-17T15:26:51.445Z,25.25
2022-08-17T15:29:18.018Z,25.35
2022-08-17T15:31:44.667Z,25.41
2022-08-17T15:34:11.288Z,25.56
2022-08-17T15:36:37.944Z,25.54
2022-08-17T15:39:07.924Z,25.42
2022-08-17T15:41:34.770Z,25.34
2022-08-17T15:44:01.322Z,25.22
2022-08-17T15:46:28.347Z,25.37
2022-08-17T15:48:59.855Z,25.46
2022-08-17T15:51:31.536Z,25.43
2022-08-17T15:54:04.540Z,25.35
2022-08-17T15:56:46.230Z,25.00
2022-08-17T15:59:13.056Z,25.07
2022-08-17T16:03:04.677Z,25.24
2022-08-17T16:04:30.875Z,25.58
2022-08-17T16:06:58.728Z,25.55
2022-08-17T16:09:25.457Z,25.60
2022-08-17T16:11:55.511Z,25.55
2022-08-17T16:14:22.644Z,25.43
2022-08-17T16:16:51.814Z,25.41
2022-08-17T16:19:18.600Z,25.50
2022-08-17T16:21:45.148Z,25.72
2022-08-17T16:24:13.430Z,26.23
2022-08-17T16:26:40.493Z,26.44
2022-08-17T16:29:07.471Z,26.35
2022-08-17T16:31:34.173Z,26.20
2022-08-17T16:34:17.069Z,26.07
2022-08-17T16:36:53.685Z,25.80
2022-08-17T16:39:25.468Z,25.77
2022-08-17T16:41:52.052Z,25.80
2022-08-17T16:44:20.574Z,25.88
2022-08-17T16:46:48.339Z,25.75
2022-08-17T16:49:36.119Z,25.85
2022-08-17T16:52:05.396Z,25.51
2022-08-17T16:54:32.660Z,25.37
2022-08-17T16:56:59.374Z,25.28
2022-08-17T16:59:30.047Z,25.23
2022-08-17T17:02:04.865Z,25.21
2022-08-17T17:04:35.009Z,25.11
2022-08-17T17:07:43.187Z,25.02
2022-08-17T17:10:16.009Z,25.01
2022-08-17T17:13:02.408Z,24.91
2022-08-17T17:15:52.458Z,24.88
2022-08-17T17:18:23.025Z,24.81
2022-08-17T17:20:56.045Z,24.78
2022-08-17T17:23:47.117Z,24.70
2022-08-17T17:26:48.428Z,24.73
2022-08-17T17:29:46.520Z,24.66
2022-08-17T17:32:21.546Z,24.58
2022-08-17T17:34:54.006Z,24.62
2022-08-17T17:37:27.273Z,24.47
2022-08-17T17:39:57.815Z,24.44
2022-08-17T17:42:31.278Z,24.40
2022-08-17T17:44:57.915Z,24.33
2022-08-17T17:47:24.888Z,24.27
2022-08-17T17:49:51.691Z,24.24
2022-08-17T17:52:37.805Z,24.17
2022-08-17T17:55:07.278Z,24.17
2022-08-17T17:57:56.329Z,24.12
2022-08-17T18:00:30.374Z,24.05
2022-08-17T18:03:27.132Z,23.96
2022-08-17T18:06:31.142Z,23.92
2022-08-17T18:09:03.747Z,23.90
2022-08-17T18:11:41.789Z,23.81
2022-08-17T18:14:30.792Z,23.70
2022-08-17T18:16:59.686Z,23.68
2022-08-17T18:19:28.595Z,23.60
2022-08-17T18:22:14.133Z,23.58
2022-08-17T18:24:57.921Z,23.53
2022-08-17T18:27:24.596Z,23.51
2022-08-17T18:29:54.960Z,23.47
2022-08-17T18:32:23.537Z,23.44
2022-08-17T18:35:01.410Z,23.41
2022-08-17T18:37:49.937Z,23.35
2022-08-17T18:40:16.823Z,23.23
2022-08-17T18:42:58.324Z,23.17
2022-08-17T18:45:30.837Z,23.13
2022-08-17T18:47:57.417Z,23.06
2022-08-17T18:50:33.996Z,23.02
2022-08-17T18:53:26.694Z,22.96
2022-08-17T18:56:26.994Z,22.89
2022-08-17T18:58:57.648Z,22.89
2022-08-17T19:01:41.757Z,22.88
2022-08-17T19:04:34.094Z,22.83
2022-08-17T19:07:24.501Z,22.79
2022-08-17T19:10:17.324Z,22.75
2022-08-17T19:12:51.740Z,22.69
2022-08-17T19:15:24.830Z,22.57
2022-08-17T19:18:00.705Z,22.47
2022-08-17T19:20:50.246Z,22.51
2022-08-17T19:23:53.822Z,22.44
2022-08-17T19:26:53.662Z,22.43
2022-08-17T19:29:46.685Z,22.39
2022-08-17T19:32:16.827Z,22.36
2022-08-17T19:34:44.489Z,22.34
2022-08-17T19:37:16.780Z,22.26
2022-08-17T19:39:55.580Z,22.26
2022-08-17T19:42:42.479Z,22.14
2022-08-17T19:46:01.419Z,22.10
2022-08-17T19:48:48.323Z,22.09
2022-08-17T19:51:24.505Z,22.06
2022-08-17T19:54:10.494Z,22.05
2022-08-17T19:56:50.539Z,22.03
2022-08-17T19:59:26.099Z,22.02
2022-08-17T20:02:01.279Z,21.91
2022-08-17T20:04:32.270Z,21.92
2022-08-17T20:07:26.180Z,21.83
2022-08-17T20:10:06.947Z,21.82
2022-08-17T20:12:36.250Z,21.78
2022-08-17T20:15:10.291Z,21.81
2022-08-17T20:17:42.568Z,21.76
2022-08-17T20:20:20.263Z,21.71
2022-08-17T20:23:17.798Z,21.66
2022-08-17T20:25:53.526Z,21.67
2022-08-17T20:28:35.030Z,21.67
2022-08-17T20:31:02.722Z,21.69
2022-08-17T20:33:37.978Z,21.62
2022-08-17T20:36:22.745Z,21.64
2022-08-17T20:38:55.890Z,21.60
2022-08-17T20:41:27.902Z,21.56
2022-08-17T20:43:57.208Z,21.45
2022-08-17T20:46:28.729Z,21.40
2022-08-17T20:49:14.010Z,21.35
2022-08-17T20:52:07.847Z,21.29
2022-08-17T20:54:52.813Z,21.29
2022-08-17T20:57:34.402Z,21.28
2022-08-17T21:00:17.601Z,21.27
2022-08-17T21:02:46.694Z,21.24
2022-08-17T21:05:32.481Z,21.24
2022-08-17T21:08:16.203Z,21.21
2022-08-17T21:10:45.508Z,21.18
2022-08-17T21:13:13.866Z,21.15
2022-08-17T21:15:41.910Z,21.06
2022-08-17T21:18:38.611Z,21.08
2022-08-17T21:21:48.456Z,20.99
2022-08-17T21:24:39.276Z,20.94
2022-08-17T21:27:21.021Z,20.91
2022-08-17T21:30:13.174Z,20.88
2022-08-17T21:32:42.013Z,20.85
2022-08-17T21:35:17.599Z,20.79
2022-08-17T21:37:46.196Z,20.76
2022-08-17T21:40:12.836Z,20.70
2022-08-17T21:42:53.850Z,20.65
2022-08-17T21:45:36.843Z,20.58
2022-08-17T21:48:20.572Z,20.57
2022-08-17T21:50:59.364Z,20.52
2022-08-17T21:53:38.105Z,20.41
2022-08-17T21:56:06.390Z,20.49
2022-08-17T21:58:40.339Z,20.46
2022-08-17T22:01:13.030Z,20.40
2022-08-17T22:03:47.598Z,20.43
2022-08-17T22:06:54.225Z,20.42
2022-08-17T22:09:44.919Z,20.31
2022-08-17T22:12:22.734Z,20.21
2022-08-17T22:15:07.472Z,20.19
2022-08-17T22:17:38.733Z,20.14
2022-08-17T22:20:12.066Z,19.98
2022-08-17T22:23:19.600Z,19.96
2022-08-17T22:26:09.578Z,19.95
2022-08-17T22:28:49.282Z,19.90
2022-08-17T22:31:28.466Z,19.83
2022-08-17T22:33:59.747Z,19.79
2022-08-17T22:36:37.191Z,19.75
2022-08-17T22:39:09.685Z,19.67
2022-08-17T22:41:59.002Z,19.67
2022-08-17T22:44:36.516Z,19.67
2022-08-17T22:47:11.479Z,19.65
2022-08-17T22:49:57.944Z,19.59
2022-08-17T22:52:34.406Z,19.58
2022-08-17T22:55:37.641Z,19.46
2022-08-17T22:58:30.627Z,19.47
2022-08-17T23:01:17.109Z,19.42
2022-08-17T23:03:57.506Z,19.44
2022-08-17T23:06:24.483Z,19.47
2022-08-17T23:08:56.318Z,19.51
2022-08-17T23:11:36.698Z,19.51
2022-08-17T23:14:18.364Z,19.55
2022-08-17T23:16:45.392Z,19.46
2022-08-17T23:19:15.369Z,19.37
2022-08-17T23:21:44.859Z,19.34
2022-08-17T23:24:17.045Z,19.25
2022-08-17T23:26:43.568Z,19.33
2022-08-17T23:29:10.150Z,19.40
2022-08-17T23:31:38.590Z,19.46
2022-08-17T23:34:09.349Z,19.48
2022-08-17T23:36:36.202Z,19.23
2022-08-17T23:39:03.250Z,19.27
2022-08-17T23:41:33.642Z,19.32
2022-08-17T23:44:01.153Z,19.27
2022-08-17T23:46:27.689Z,19.18
2022-08-17T23:48:54.299Z,19.03
2022-08-17T23:51:27.340Z,18.97
2022-08-17T23:53:58.184Z,18.94
2022-08-17T23:56:25.742Z,18.88
2022-08-17T23:58:54.833Z,18.73
